sensor_id;sensor_type;location;lat;lon;timestamp;P1;durP1;ratioP1;P2;durP2;ratioP2
23360;SDS011;11852;50.082;18.554;2023-06-26T00:00:42;10.6;;;7.3;;
23360;SDS011;11852;50.082;18.554;2023-06-26T00:01:47;10.4;;;7.2;;
23360;SDS011;11852;50.082;18.554;2023-06-26T00:02:52;11.0;;;6.8;;
23360;SDS011;11852;50.082;18.554;2023-06-26T00:03:57;9.8;;;6.7;;
23360;SDS011;11852;50.082;18.554;2023-06-26T00:05:03;10.9;;;7.1;;
23360;SDS011;11852;50.082;18.554;2023-06-26T00:06:08;9.4;;;6.4;;
23360;SDS011;11852;50.082;18.554;2023-06-26T00:07:12;10.2;;;6.8;;
23360;SDS011;11852;50.082;18.554;2023-06-26T00:08:17;9.9;;;6.8;;
23360;SDS011;11852;50.082;18.554;2023-06-26T00:09:23;10.2;;;6.4;;
23360;SDS011;11852;50.082;18.554;2023-06-26T00:10:27;11.0;;;6.5;;
23360;SDS011;11852;50.082;18.554;2023-06-26T00:11:32;9.3;;;6.5;;
23360;SDS011;11852;50.082;18.554;2023-06-26T00:12:38;16.6;;;6.2;;
23360;SDS011;11852;50.082;18.554;2023-06-26T00:13:43;9.9;;;6.2;;
23360;SDS011;11852;50.082;18.554;2023-06-26T00:14:48;10.8;;;6.3;;
23360;SDS011;11852;50.082;18.554;2023-06-26T00:15:53;9.6;;;6.2;;
23360;SDS011;11852;50.082;18.554;2023-06-26T00:16:58;10.2;;;6.3;;
23360;SDS011;11852;50.082;18.554;2023-06-26T00:18:04;9.0;;;6.2;;
23360;SDS011;11852;50.082;18.554;2023-06-26T00:19:10;9.4;;;6.0;;
23360;SDS011;11852;50.082;18.554;2023-06-26T00:20:15;9.5;;;6.2;;
23360;SDS011;11852;50.082;18.554;2023-06-26T00:21:20;9.9;;;6.4;;
23360;SDS011;11852;50.082;18.554;2023-06-26T00:22:25;10.8;;;7.1;;
23360;SDS011;11852;50.082;18.554;2023-06-26T00:23:30;9.5;;;6.9;;
23360;SDS011;11852;50.082;18.554;2023-06-26T00:24:34;9.2;;;6.5;;
23360;SDS011;11852;50.082;18.554;2023-06-26T00:25:39;11.1;;;6.6;;
23360;SDS011;11852;50.082;18.554;2023-06-26T00:26:46;11.4;;;6.9;;
23360;SDS011;11852;50.082;18.554;2023-06-26T00:27:49;9.4;;;6.3;;
23360;SDS011;11852;50.082;18.554;2023-06-26T00:28:54;12.0;;;6.5;;
23360;SDS011;11852;50.082;18.554;2023-06-26T00:29:58;11.0;;;6.9;;
23360;SDS011;11852;50.082;18.554;2023-06-26T00:31:03;11.5;;;6.8;;
23360;SDS011;11852;50.082;18.554;2023-06-26T00:32:08;11.1;;;6.6;;
23360;SDS011;11852;50.082;18.554;2023-06-26T00:33:13;9.7;;;6.4;;
23360;SDS011;11852;50.082;18.554;2023-06-26T00:34:18;9.3;;;6.4;;
23360;SDS011;11852;50.082;18.554;2023-06-26T00:35:23;9.6;;;6.5;;
23360;SDS011;11852;50.082;18.554;2023-06-26T00:36:28;10.8;;;6.9;;
23360;SDS011;11852;50.082;18.554;2023-06-26T00:37:32;10.9;;;7.0;;
23360;SDS011;11852;50.082;18.554;2023-06-26T00:38:37;9.2;;;6.6;;
23360;SDS011;11852;50.082;18.554;2023-06-26T00:39:42;9.4;;;6.3;;
23360;SDS011;11852;50.082;18.554;2023-06-26T00:40:47;9.5;;;6.5;;
23360;SDS011;11852;50.082;18.554;2023-06-26T00:41:52;10.3;;;6.5;;
23360;SDS011;11852;50.082;18.554;2023-06-26T00:42:56;10.6;;;6.8;;
23360;SDS011;11852;50.082;18.554;2023-06-26T00:44:01;10.4;;;6.6;;
23360;SDS011;11852;50.082;18.554;2023-06-26T00:45:06;10.0;;;6.5;;
23360;SDS011;11852;50.082;18.554;2023-06-26T00:46:12;9.9;;;6.5;;
23360;SDS011;11852;50.082;18.554;2023-06-26T00:47:16;11.1;;;6.5;;
23360;SDS011;11852;50.082;18.554;2023-06-26T00:48:21;11.0;;;6.4;;
23360;SDS011;11852;50.082;18.554;2023-06-26T00:49:26;9.3;;;6.0;;
23360;SDS011;11852;50.082;18.554;2023-06-26T00:50:31;9.6;;;6.2;;
23360;SDS011;11852;50.082;18.554;2023-06-26T00:51:36;9.9;;;6.5;;
23360;SDS011;11852;50.082;18.554;2023-06-26T00:52:41;9.5;;;6.3;;
23360;SDS011;11852;50.082;18.554;2023-06-26T00:53:46;9.2;;;6.0;;
23360;SDS011;11852;50.082;18.554;2023-06-26T00:54:50;10.3;;;6.0;;
23360;SDS011;11852;50.082;18.554;2023-06-26T00:55:55;11.1;;;6.8;;
23360;SDS011;11852;50.082;18.554;2023-06-26T00:57:00;9.2;;;6.8;;
23360;SDS011;11852;50.082;18.554;2023-06-26T00:58:05;10.6;;;6.9;;
23360;SDS011;11852;50.082;18.554;2023-06-26T00:59:11;11.5;;;7.5;;
23360;SDS011;11852;50.082;18.554;2023-06-26T01:00:16;10.1;;;7.4;;
23360;SDS011;11852;50.082;18.554;2023-06-26T01:01:21;11.6;;;8.1;;
23360;SDS011;11852;50.082;18.554;2023-06-26T01:02:26;9.9;;;7.4;;
23360;SDS011;11852;50.082;18.554;2023-06-26T01:03:31;11.1;;;7.4;;
23360;SDS011;11852;50.082;18.554;2023-06-26T01:04:36;10.9;;;7.9;;
23360;SDS011;11852;50.082;18.554;2023-06-26T01:05:42;11.2;;;7.8;;
23360;SDS011;11852;50.082;18.554;2023-06-26T01:06:49;11.7;;;7.3;;
23360;SDS011;11852;50.082;18.554;2023-06-26T01:07:54;12.0;;;8.0;;
23360;SDS011;11852;50.082;18.554;2023-06-26T01:08:59;11.1;;;7.7;;
23360;SDS011;11852;50.082;18.554;2023-06-26T01:10:04;12.3;;;8.2;;
23360;SDS011;11852;50.082;18.554;2023-06-26T01:11:09;10.6;;;6.8;;
23360;SDS011;11852;50.082;18.554;2023-06-26T01:12:14;11.1;;;7.1;;
23360;SDS011;11852;50.082;18.554;2023-06-26T01:13:18;11.1;;;7.1;;
23360;SDS011;11852;50.082;18.554;2023-06-26T01:14:23;11.5;;;6.6;;
23360;SDS011;11852;50.082;18.554;2023-06-26T01:15:28;9.1;;;6.5;;
23360;SDS011;11852;50.082;18.554;2023-06-26T01:16:33;10.7;;;6.6;;
23360;SDS011;11852;50.082;18.554;2023-06-26T01:17:38;11.8;;;6.2;;
23360;SDS011;11852;50.082;18.554;2023-06-26T01:18:42;9.6;;;6.0;;
23360;SDS011;11852;50.082;18.554;2023-06-26T01:19:47;9.7;;;6.2;;
23360;SDS011;11852;50.082;18.554;2023-06-26T01:20:52;9.0;;;6.1;;
23360;SDS011;11852;50.082;18.554;2023-06-26T01:21:58;9.9;;;6.2;;
23360;SDS011;11852;50.082;18.554;2023-06-26T01:24:19;9.0;;;5.8;;
23360;SDS011;11852;50.082;18.554;2023-06-26T01:26:37;9.2;;;6.0;;
23360;SDS011;11852;50.082;18.554;2023-06-26T01:27:42;8.8;;;6.1;;
23360;SDS011;11852;50.082;18.554;2023-06-26T01:28:47;9.4;;;5.8;;
23360;SDS011;11852;50.082;18.554;2023-06-26T01:29:52;11.7;;;6.3;;
23360;SDS011;11852;50.082;18.554;2023-06-26T01:30:59;7.8;;;5.5;;
23360;SDS011;11852;50.082;18.554;2023-06-26T01:32:03;9.4;;;5.7;;
23360;SDS011;11852;50.082;18.554;2023-06-26T01:33:10;10.2;;;6.8;;
23360;SDS011;11852;50.082;18.554;2023-06-26T01:34:16;11.4;;;6.3;;
23360;SDS011;11852;50.082;18.554;2023-06-26T01:35:21;8.5;;;5.9;;
23360;SDS011;11852;50.082;18.554;2023-06-26T01:36:26;8.7;;;5.8;;
23360;SDS011;11852;50.082;18.554;2023-06-26T01:37:32;8.3;;;5.7;;
23360;SDS011;11852;50.082;18.554;2023-06-26T01:38:37;10.4;;;5.7;;
23360;SDS011;11852;50.082;18.554;2023-06-26T01:39:43;8.4;;;5.4;;
23360;SDS011;11852;50.082;18.554;2023-06-26T01:40:47;9.3;;;5.9;;
23360;SDS011;11852;50.082;18.554;2023-06-26T01:41:52;10.8;;;6.1;;
23360;SDS011;11852;50.082;18.554;2023-06-26T01:42:57;8.9;;;5.6;;
23360;SDS011;11852;50.082;18.554;2023-06-26T01:44:06;8.1;;;5.3;;
23360;SDS011;11852;50.082;18.554;2023-06-26T01:47:31;9.5;;;5.9;;
23360;SDS011;11852;50.082;18.554;2023-06-26T01:48:50;8.9;;;6.3;;
23360;SDS011;11852;50.082;18.554;2023-06-26T01:51:02;9.5;;;6.0;;
23360;SDS011;11852;50.082;18.554;2023-06-26T01:53:21;10.4;;;6.4;;
23360;SDS011;11852;50.082;18.554;2023-06-26T01:54:26;9.9;;;5.6;;
23360;SDS011;11852;50.082;18.554;2023-06-26T01:56:41;10.3;;;6.5;;
23360;SDS011;11852;50.082;18.554;2023-06-26T01:57:45;10.1;;;6.2;;
23360;SDS011;11852;50.082;18.554;2023-06-26T01:58:51;10.3;;;5.9;;
23360;SDS011;11852;50.082;18.554;2023-06-26T01:59:56;9.2;;;6.3;;
23360;SDS011;11852;50.082;18.554;2023-06-26T02:01:01;9.0;;;5.6;;
23360;SDS011;11852;50.082;18.554;2023-06-26T02:02:08;9.2;;;6.0;;
23360;SDS011;11852;50.082;18.554;2023-06-26T02:03:13;9.8;;;5.8;;
23360;SDS011;11852;50.082;18.554;2023-06-26T02:04:18;9.3;;;6.1;;
23360;SDS011;11852;50.082;18.554;2023-06-26T02:05:23;8.8;;;5.8;;
23360;SDS011;11852;50.082;18.554;2023-06-26T02:06:28;8.9;;;6.0;;
23360;SDS011;11852;50.082;18.554;2023-06-26T02:07:33;9.3;;;5.9;;
23360;SDS011;11852;50.082;18.554;2023-06-26T02:08:38;9.4;;;6.0;;
23360;SDS011;11852;50.082;18.554;2023-06-26T02:09:43;10.5;;;5.9;;
23360;SDS011;11852;50.082;18.554;2023-06-26T02:10:49;9.5;;;6.0;;
23360;SDS011;11852;50.082;18.554;2023-06-26T02:11:54;9.9;;;5.8;;
23360;SDS011;11852;50.082;18.554;2023-06-26T02:13:00;9.2;;;5.9;;
23360;SDS011;11852;50.082;18.554;2023-06-26T02:14:05;9.9;;;6.6;;
23360;SDS011;11852;50.082;18.554;2023-06-26T02:15:11;9.6;;;6.1;;
23360;SDS011;11852;50.082;18.554;2023-06-26T02:16:17;10.5;;;6.0;;
23360;SDS011;11852;50.082;18.554;2023-06-26T02:17:22;8.9;;;6.3;;
23360;SDS011;11852;50.082;18.554;2023-06-26T02:18:27;9.5;;;6.1;;
23360;SDS011;11852;50.082;18.554;2023-06-26T02:19:31;9.8;;;6.2;;
23360;SDS011;11852;50.082;18.554;2023-06-26T02:20:36;10.3;;;6.3;;
23360;SDS011;11852;50.082;18.554;2023-06-26T02:21:41;8.9;;;6.1;;
23360;SDS011;11852;50.082;18.554;2023-06-26T02:22:46;9.4;;;5.6;;
23360;SDS011;11852;50.082;18.554;2023-06-26T02:23:52;10.2;;;6.1;;
23360;SDS011;11852;50.082;18.554;2023-06-26T02:24:57;9.6;;;6.0;;
23360;SDS011;11852;50.082;18.554;2023-06-26T02:26:01;9.1;;;5.5;;
23360;SDS011;11852;50.082;18.554;2023-06-26T02:27:06;10.9;;;6.3;;
23360;SDS011;11852;50.082;18.554;2023-06-26T02:28:12;10.4;;;6.1;;
23360;SDS011;11852;50.082;18.554;2023-06-26T02:29:18;8.9;;;5.6;;
23360;SDS011;11852;50.082;18.554;2023-06-26T02:30:22;9.0;;;5.4;;
23360;SDS011;11852;50.082;18.554;2023-06-26T02:31:27;9.4;;;6.2;;
23360;SDS011;11852;50.082;18.554;2023-06-26T02:32:32;9.9;;;6.2;;
23360;SDS011;11852;50.082;18.554;2023-06-26T02:33:37;9.8;;;6.0;;
23360;SDS011;11852;50.082;18.554;2023-06-26T02:34:42;8.9;;;5.5;;
23360;SDS011;11852;50.082;18.554;2023-06-26T02:35:46;10.5;;;6.1;;
23360;SDS011;11852;50.082;18.554;2023-06-26T02:36:51;8.8;;;5.6;;
23360;SDS011;11852;50.082;18.554;2023-06-26T02:37:56;9.3;;;5.7;;
23360;SDS011;11852;50.082;18.554;2023-06-26T02:39:01;8.9;;;5.6;;
23360;SDS011;11852;50.082;18.554;2023-06-26T02:40:07;11.0;;;6.2;;
23360;SDS011;11852;50.082;18.554;2023-06-26T02:41:12;9.3;;;6.0;;
23360;SDS011;11852;50.082;18.554;2023-06-26T02:42:17;11.2;;;6.2;;
23360;SDS011;11852;50.082;18.554;2023-06-26T02:43:22;9.1;;;6.0;;
23360;SDS011;11852;50.082;18.554;2023-06-26T02:44:27;8.2;;;5.7;;
23360;SDS011;11852;50.082;18.554;2023-06-26T02:45:32;9.8;;;5.9;;
23360;SDS011;11852;50.082;18.554;2023-06-26T02:46:37;10.4;;;6.0;;
23360;SDS011;11852;50.082;18.554;2023-06-26T02:47:41;8.1;;;5.3;;
23360;SDS011;11852;50.082;18.554;2023-06-26T02:48:46;9.5;;;6.0;;
23360;SDS011;11852;50.082;18.554;2023-06-26T02:49:51;10.0;;;5.6;;
23360;SDS011;11852;50.082;18.554;2023-06-26T02:50:56;9.0;;;6.3;;
23360;SDS011;11852;50.082;18.554;2023-06-26T02:52:00;10.4;;;5.7;;
23360;SDS011;11852;50.082;18.554;2023-06-26T02:53:05;9.3;;;5.7;;
23360;SDS011;11852;50.082;18.554;2023-06-26T02:54:10;8.9;;;6.0;;
23360;SDS011;11852;50.082;18.554;2023-06-26T02:55:16;10.5;;;6.0;;
23360;SDS011;11852;50.082;18.554;2023-06-26T02:56:21;10.4;;;6.1;;
23360;SDS011;11852;50.082;18.554;2023-06-26T02:57:26;9.4;;;6.0;;
23360;SDS011;11852;50.082;18.554;2023-06-26T02:58:31;10.4;;;5.6;;
23360;SDS011;11852;50.082;18.554;2023-06-26T02:59:37;8.9;;;5.6;;
23360;SDS011;11852;50.082;18.554;2023-06-26T03:00:42;9.2;;;5.8;;
23360;SDS011;11852;50.082;18.554;2023-06-26T03:01:47;10.6;;;5.5;;
23360;SDS011;11852;50.082;18.554;2023-06-26T03:02:52;11.8;;;6.0;;
23360;SDS011;11852;50.082;18.554;2023-06-26T03:03:56;10.0;;;6.0;;
23360;SDS011;11852;50.082;18.554;2023-06-26T03:05:02;11.1;;;5.9;;
23360;SDS011;11852;50.082;18.554;2023-06-26T03:06:07;10.0;;;6.0;;
23360;SDS011;11852;50.082;18.554;2023-06-26T03:07:12;10.6;;;5.9;;
23360;SDS011;11852;50.082;18.554;2023-06-26T03:08:17;9.9;;;5.8;;
23360;SDS011;11852;50.082;18.554;2023-06-26T03:09:21;11.1;;;6.4;;
23360;SDS011;11852;50.082;18.554;2023-06-26T03:10:26;12.0;;;5.6;;
23360;SDS011;11852;50.082;18.554;2023-06-26T03:11:31;11.6;;;6.3;;
23360;SDS011;11852;50.082;18.554;2023-06-26T03:12:36;11.0;;;6.1;;
23360;SDS011;11852;50.082;18.554;2023-06-26T03:13:41;10.9;;;6.4;;
23360;SDS011;11852;50.082;18.554;2023-06-26T03:14:46;11.2;;;6.0;;
23360;SDS011;11852;50.082;18.554;2023-06-26T03:15:51;11.9;;;7.0;;
23360;SDS011;11852;50.082;18.554;2023-06-26T03:16:56;12.7;;;7.4;;
23360;SDS011;11852;50.082;18.554;2023-06-26T03:18:01;11.0;;;7.0;;
23360;SDS011;11852;50.082;18.554;2023-06-26T03:19:06;11.6;;;6.9;;
23360;SDS011;11852;50.082;18.554;2023-06-26T03:20:11;12.2;;;7.4;;
23360;SDS011;11852;50.082;18.554;2023-06-26T03:21:16;12.3;;;7.1;;
23360;SDS011;11852;50.082;18.554;2023-06-26T03:22:21;13.1;;;7.5;;
23360;SDS011;11852;50.082;18.554;2023-06-26T03:23:26;12.1;;;7.8;;
23360;SDS011;11852;50.082;18.554;2023-06-26T03:24:31;13.1;;;7.8;;
23360;SDS011;11852;50.082;18.554;2023-06-26T03:25:35;15.5;;;7.6;;
23360;SDS011;11852;50.082;18.554;2023-06-26T03:26:40;14.8;;;7.4;;
23360;SDS011;11852;50.082;18.554;2023-06-26T03:27:45;14.7;;;7.7;;
23360;SDS011;11852;50.082;18.554;2023-06-26T03:28:50;13.7;;;7.9;;
23360;SDS011;11852;50.082;18.554;2023-06-26T03:29:55;12.7;;;7.9;;
23360;SDS011;11852;50.082;18.554;2023-06-26T03:30:59;14.7;;;8.5;;
23360;SDS011;11852;50.082;18.554;2023-06-26T03:32:04;13.8;;;8.0;;
23360;SDS011;11852;50.082;18.554;2023-06-26T03:33:09;11.7;;;7.6;;
23360;SDS011;11852;50.082;18.554;2023-06-26T03:34:14;16.4;;;8.5;;
23360;SDS011;11852;50.082;18.554;2023-06-26T03:35:19;15.4;;;8.3;;
23360;SDS011;11852;50.082;18.554;2023-06-26T03:36:24;15.3;;;9.2;;
23360;SDS011;11852;50.082;18.554;2023-06-26T03:37:30;13.2;;;8.6;;
23360;SDS011;11852;50.082;18.554;2023-06-26T03:38:35;14.0;;;8.2;;
23360;SDS011;11852;50.082;18.554;2023-06-26T03:39:40;14.9;;;9.0;;
23360;SDS011;11852;50.082;18.554;2023-06-26T03:40:44;13.4;;;8.3;;
23360;SDS011;11852;50.082;18.554;2023-06-26T03:41:49;14.3;;;9.0;;
23360;SDS011;11852;50.082;18.554;2023-06-26T03:42:54;13.3;;;8.4;;
23360;SDS011;11852;50.082;18.554;2023-06-26T03:44:01;16.0;;;8.4;;
23360;SDS011;11852;50.082;18.554;2023-06-26T03:45:06;12.6;;;7.9;;
23360;SDS011;11852;50.082;18.554;2023-06-26T03:46:12;14.2;;;8.1;;
23360;SDS011;11852;50.082;18.554;2023-06-26T03:47:19;13.1;;;7.8;;
23360;SDS011;11852;50.082;18.554;2023-06-26T03:48:24;12.4;;;7.9;;
23360;SDS011;11852;50.082;18.554;2023-06-26T03:49:28;13.9;;;7.5;;
23360;SDS011;11852;50.082;18.554;2023-06-26T03:50:33;14.2;;;8.0;;
23360;SDS011;11852;50.082;18.554;2023-06-26T03:51:38;12.7;;;7.2;;
23360;SDS011;11852;50.082;18.554;2023-06-26T03:52:43;13.0;;;7.7;;
23360;SDS011;11852;50.082;18.554;2023-06-26T03:53:48;11.4;;;7.1;;
23360;SDS011;11852;50.082;18.554;2023-06-26T03:54:53;12.1;;;7.4;;
23360;SDS011;11852;50.082;18.554;2023-06-26T03:55:58;15.0;;;7.5;;
23360;SDS011;11852;50.082;18.554;2023-06-26T03:57:03;12.5;;;7.1;;
23360;SDS011;11852;50.082;18.554;2023-06-26T03:58:08;13.5;;;7.7;;
23360;SDS011;11852;50.082;18.554;2023-06-26T03:59:13;13.1;;;7.2;;
23360;SDS011;11852;50.082;18.554;2023-06-26T04:00:17;12.2;;;7.3;;
23360;SDS011;11852;50.082;18.554;2023-06-26T04:01:23;11.4;;;7.1;;
23360;SDS011;11852;50.082;18.554;2023-06-26T04:02:29;12.2;;;6.8;;
23360;SDS011;11852;50.082;18.554;2023-06-26T04:03:35;12.8;;;7.2;;
23360;SDS011;11852;50.082;18.554;2023-06-26T04:04:39;13.3;;;7.2;;
23360;SDS011;11852;50.082;18.554;2023-06-26T04:05:44;10.9;;;7.0;;
23360;SDS011;11852;50.082;18.554;2023-06-26T04:06:50;10.8;;;7.0;;
23360;SDS011;11852;50.082;18.554;2023-06-26T04:07:57;12.1;;;7.2;;
23360;SDS011;11852;50.082;18.554;2023-06-26T04:09:02;12.0;;;7.4;;
23360;SDS011;11852;50.082;18.554;2023-06-26T04:10:07;11.7;;;6.4;;
23360;SDS011;11852;50.082;18.554;2023-06-26T04:11:12;11.7;;;6.6;;
23360;SDS011;11852;50.082;18.554;2023-06-26T04:12:17;10.5;;;6.7;;
23360;SDS011;11852;50.082;18.554;2023-06-26T04:13:22;11.4;;;5.9;;
23360;SDS011;11852;50.082;18.554;2023-06-26T04:14:28;11.7;;;6.2;;
23360;SDS011;11852;50.082;18.554;2023-06-26T04:15:33;12.4;;;6.5;;
23360;SDS011;11852;50.082;18.554;2023-06-26T04:16:38;10.5;;;6.2;;
23360;SDS011;11852;50.082;18.554;2023-06-26T04:17:43;10.6;;;6.6;;
23360;SDS011;11852;50.082;18.554;2023-06-26T04:18:48;12.5;;;6.7;;
23360;SDS011;11852;50.082;18.554;2023-06-26T04:19:54;11.5;;;6.7;;
23360;SDS011;11852;50.082;18.554;2023-06-26T04:22:08;10.8;;;6.7;;
23360;SDS011;11852;50.082;18.554;2023-06-26T04:23:13;12.4;;;6.2;;
23360;SDS011;11852;50.082;18.554;2023-06-26T04:24:18;12.1;;;6.5;;
23360;SDS011;11852;50.082;18.554;2023-06-26T04:25:23;10.1;;;7.0;;
23360;SDS011;11852;50.082;18.554;2023-06-26T04:26:28;11.3;;;6.4;;
23360;SDS011;11852;50.082;18.554;2023-06-26T04:27:33;8.9;;;5.9;;
23360;SDS011;11852;50.082;18.554;2023-06-26T04:28:37;11.2;;;6.8;;
23360;SDS011;11852;50.082;18.554;2023-06-26T04:29:43;10.3;;;6.4;;
23360;SDS011;11852;50.082;18.554;2023-06-26T04:30:48;13.6;;;7.1;;
23360;SDS011;11852;50.082;18.554;2023-06-26T04:31:54;11.5;;;6.4;;
23360;SDS011;11852;50.082;18.554;2023-06-26T04:32:59;10.5;;;6.6;;
23360;SDS011;11852;50.082;18.554;2023-06-26T04:34:05;10.9;;;6.8;;
23360;SDS011;11852;50.082;18.554;2023-06-26T04:35:10;11.9;;;6.5;;
23360;SDS011;11852;50.082;18.554;2023-06-26T04:36:15;10.1;;;6.1;;
23360;SDS011;11852;50.082;18.554;2023-06-26T04:37:20;12.7;;;6.7;;
23360;SDS011;11852;50.082;18.554;2023-06-26T04:38:25;10.5;;;6.3;;
23360;SDS011;11852;50.082;18.554;2023-06-26T04:39:30;13.9;;;6.2;;
23360;SDS011;11852;50.082;18.554;2023-06-26T04:40:35;10.4;;;6.3;;
23360;SDS011;11852;50.082;18.554;2023-06-26T04:41:40;9.8;;;6.0;;
23360;SDS011;11852;50.082;18.554;2023-06-26T04:42:45;11.8;;;5.8;;
23360;SDS011;11852;50.082;18.554;2023-06-26T04:43:51;10.1;;;5.8;;
23360;SDS011;11852;50.082;18.554;2023-06-26T04:44:56;10.6;;;6.4;;
23360;SDS011;11852;50.082;18.554;2023-06-26T04:46:04;11.4;;;6.0;;
23360;SDS011;11852;50.082;18.554;2023-06-26T04:47:09;10.0;;;5.6;;
23360;SDS011;11852;50.082;18.554;2023-06-26T04:48:14;10.9;;;5.8;;
23360;SDS011;11852;50.082;18.554;2023-06-26T04:49:19;9.8;;;6.0;;
23360;SDS011;11852;50.082;18.554;2023-06-26T04:50:24;8.9;;;5.4;;
23360;SDS011;11852;50.082;18.554;2023-06-26T04:51:29;11.2;;;5.6;;
23360;SDS011;11852;50.082;18.554;2023-06-26T04:52:34;8.9;;;5.2;;
23360;SDS011;11852;50.082;18.554;2023-06-26T04:53:40;11.6;;;5.7;;
23360;SDS011;11852;50.082;18.554;2023-06-26T04:54:46;9.1;;;5.4;;
23360;SDS011;11852;50.082;18.554;2023-06-26T04:55:51;9.7;;;5.5;;
23360;SDS011;11852;50.082;18.554;2023-06-26T04:56:55;11.2;;;5.5;;
23360;SDS011;11852;50.082;18.554;2023-06-26T04:58:00;11.3;;;5.5;;
23360;SDS011;11852;50.082;18.554;2023-06-26T04:59:06;8.4;;;5.3;;
23360;SDS011;11852;50.082;18.554;2023-06-26T05:00:11;9.6;;;5.6;;
23360;SDS011;11852;50.082;18.554;2023-06-26T05:01:16;9.5;;;5.4;;
23360;SDS011;11852;50.082;18.554;2023-06-26T05:02:21;9.6;;;5.5;;
23360;SDS011;11852;50.082;18.554;2023-06-26T05:03:26;9.8;;;5.7;;
23360;SDS011;11852;50.082;18.554;2023-06-26T05:04:31;10.5;;;5.5;;
23360;SDS011;11852;50.082;18.554;2023-06-26T05:05:36;9.4;;;5.5;;
23360;SDS011;11852;50.082;18.554;2023-06-26T05:06:41;10.2;;;5.7;;
23360;SDS011;11852;50.082;18.554;2023-06-26T05:07:46;11.0;;;5.8;;
23360;SDS011;11852;50.082;18.554;2023-06-26T05:08:51;10.2;;;5.6;;
23360;SDS011;11852;50.082;18.554;2023-06-26T05:09:56;10.3;;;5.5;;
23360;SDS011;11852;50.082;18.554;2023-06-26T05:11:01;11.1;;;6.1;;
23360;SDS011;11852;50.082;18.554;2023-06-26T05:12:06;11.3;;;5.8;;
23360;SDS011;11852;50.082;18.554;2023-06-26T05:13:11;8.7;;;5.3;;
23360;SDS011;11852;50.082;18.554;2023-06-26T05:14:16;10.5;;;5.6;;
23360;SDS011;11852;50.082;18.554;2023-06-26T05:15:21;11.3;;;5.6;;
23360;SDS011;11852;50.082;18.554;2023-06-26T05:16:27;9.1;;;5.3;;
23360;SDS011;11852;50.082;18.554;2023-06-26T05:17:31;9.8;;;5.7;;
23360;SDS011;11852;50.082;18.554;2023-06-26T05:18:36;11.0;;;5.4;;
23360;SDS011;11852;50.082;18.554;2023-06-26T05:19:41;9.7;;;5.9;;
23360;SDS011;11852;50.082;18.554;2023-06-26T05:20:47;12.2;;;5.5;;
23360;SDS011;11852;50.082;18.554;2023-06-26T05:21:54;10.6;;;5.2;;
23360;SDS011;11852;50.082;18.554;2023-06-26T05:22:58;10.0;;;5.2;;
23360;SDS011;11852;50.082;18.554;2023-06-26T05:24:04;8.9;;;5.4;;
23360;SDS011;11852;50.082;18.554;2023-06-26T05:25:09;12.0;;;5.2;;
23360;SDS011;11852;50.082;18.554;2023-06-26T05:26:16;10.1;;;5.0;;
23360;SDS011;11852;50.082;18.554;2023-06-26T05:27:21;10.8;;;5.4;;
23360;SDS011;11852;50.082;18.554;2023-06-26T05:28:26;9.9;;;5.6;;
23360;SDS011;11852;50.082;18.554;2023-06-26T05:29:32;10.7;;;4.7;;
23360;SDS011;11852;50.082;18.554;2023-06-26T05:30:37;8.6;;;4.5;;
23360;SDS011;11852;50.082;18.554;2023-06-26T05:31:42;9.8;;;5.3;;
23360;SDS011;11852;50.082;18.554;2023-06-26T05:32:46;9.3;;;5.0;;
23360;SDS011;11852;50.082;18.554;2023-06-26T05:33:52;11.2;;;4.9;;
23360;SDS011;11852;50.082;18.554;2023-06-26T05:34:57;8.6;;;4.9;;
23360;SDS011;11852;50.082;18.554;2023-06-26T05:36:02;8.4;;;5.0;;
23360;SDS011;11852;50.082;18.554;2023-06-26T05:37:07;9.5;;;5.1;;
23360;SDS011;11852;50.082;18.554;2023-06-26T05:38:13;9.6;;;5.0;;
23360;SDS011;11852;50.082;18.554;2023-06-26T05:39:20;9.2;;;5.1;;
23360;SDS011;11852;50.082;18.554;2023-06-26T05:40:25;7.4;;;4.8;;
23360;SDS011;11852;50.082;18.554;2023-06-26T05:41:30;9.5;;;5.0;;
23360;SDS011;11852;50.082;18.554;2023-06-26T05:42:35;10.0;;;5.1;;
23360;SDS011;11852;50.082;18.554;2023-06-26T05:43:40;9.5;;;4.7;;
23360;SDS011;11852;50.082;18.554;2023-06-26T05:44:45;9.0;;;4.9;;
23360;SDS011;11852;50.082;18.554;2023-06-26T05:45:49;8.2;;;4.9;;
23360;SDS011;11852;50.082;18.554;2023-06-26T05:46:55;9.7;;;5.1;;
23360;SDS011;11852;50.082;18.554;2023-06-26T05:48:00;9.2;;;5.3;;
23360;SDS011;11852;50.082;18.554;2023-06-26T05:49:06;9.2;;;5.4;;
23360;SDS011;11852;50.082;18.554;2023-06-26T05:50:11;8.5;;;4.7;;
23360;SDS011;11852;50.082;18.554;2023-06-26T05:51:16;9.5;;;4.6;;
23360;SDS011;11852;50.082;18.554;2023-06-26T05:52:21;8.7;;;4.8;;
23360;SDS011;11852;50.082;18.554;2023-06-26T05:53:26;7.5;;;4.9;;
23360;SDS011;11852;50.082;18.554;2023-06-26T05:54:31;9.7;;;5.2;;
23360;SDS011;11852;50.082;18.554;2023-06-26T05:55:36;10.6;;;4.8;;
23360;SDS011;11852;50.082;18.554;2023-06-26T05:56:41;9.4;;;4.9;;
23360;SDS011;11852;50.082;18.554;2023-06-26T05:57:46;9.1;;;4.8;;
23360;SDS011;11852;50.082;18.554;2023-06-26T05:58:52;11.0;;;5.5;;
23360;SDS011;11852;50.082;18.554;2023-06-26T05:59:57;8.9;;;4.5;;
23360;SDS011;11852;50.082;18.554;2023-06-26T06:01:03;11.8;;;5.5;;
23360;SDS011;11852;50.082;18.554;2023-06-26T06:02:07;8.9;;;5.4;;
23360;SDS011;11852;50.082;18.554;2023-06-26T06:03:12;13.1;;;5.3;;
23360;SDS011;11852;50.082;18.554;2023-06-26T06:04:18;11.4;;;5.7;;
23360;SDS011;11852;50.082;18.554;2023-06-26T06:05:23;10.4;;;5.0;;
23360;SDS011;11852;50.082;18.554;2023-06-26T06:06:28;10.8;;;4.9;;
23360;SDS011;11852;50.082;18.554;2023-06-26T06:07:35;9.3;;;5.0;;
23360;SDS011;11852;50.082;18.554;2023-06-26T06:08:40;9.2;;;5.1;;
23360;SDS011;11852;50.082;18.554;2023-06-26T06:09:46;9.1;;;5.0;;
23360;SDS011;11852;50.082;18.554;2023-06-26T06:10:52;9.5;;;4.5;;
23360;SDS011;11852;50.082;18.554;2023-06-26T06:11:58;8.4;;;4.9;;
23360;SDS011;11852;50.082;18.554;2023-06-26T06:13:02;10.4;;;4.6;;
23360;SDS011;11852;50.082;18.554;2023-06-26T06:14:06;10.5;;;5.0;;
23360;SDS011;11852;50.082;18.554;2023-06-26T06:15:11;9.1;;;4.7;;
23360;SDS011;11852;50.082;18.554;2023-06-26T06:16:16;9.4;;;4.7;;
23360;SDS011;11852;50.082;18.554;2023-06-26T06:17:21;8.9;;;4.7;;
23360;SDS011;11852;50.082;18.554;2023-06-26T06:18:26;9.7;;;4.6;;
23360;SDS011;11852;50.082;18.554;2023-06-26T06:19:31;9.2;;;4.9;;
23360;SDS011;11852;50.082;18.554;2023-06-26T06:20:36;8.7;;;5.1;;
23360;SDS011;11852;50.082;18.554;2023-06-26T06:21:41;12.2;;;5.4;;
23360;SDS011;11852;50.082;18.554;2023-06-26T06:22:47;9.8;;;5.1;;
23360;SDS011;11852;50.082;18.554;2023-06-26T06:23:52;10.2;;;5.2;;
23360;SDS011;11852;50.082;18.554;2023-06-26T06:24:56;8.9;;;5.4;;
23360;SDS011;11852;50.082;18.554;2023-06-26T06:26:01;9.7;;;5.3;;
23360;SDS011;11852;50.082;18.554;2023-06-26T06:27:07;9.7;;;5.6;;
23360;SDS011;11852;50.082;18.554;2023-06-26T06:28:12;10.9;;;5.2;;
23360;SDS011;11852;50.082;18.554;2023-06-26T06:29:17;9.0;;;5.5;;
23360;SDS011;11852;50.082;18.554;2023-06-26T06:30:22;9.1;;;5.5;;
23360;SDS011;11852;50.082;18.554;2023-06-26T06:31:26;10.5;;;5.8;;
23360;SDS011;11852;50.082;18.554;2023-06-26T06:32:33;8.3;;;5.5;;
23360;SDS011;11852;50.082;18.554;2023-06-26T06:33:37;9.3;;;5.1;;
23360;SDS011;11852;50.082;18.554;2023-06-26T06:34:42;10.2;;;5.3;;
23360;SDS011;11852;50.082;18.554;2023-06-26T06:35:47;9.2;;;5.6;;
23360;SDS011;11852;50.082;18.554;2023-06-26T06:36:52;10.8;;;5.5;;
23360;SDS011;11852;50.082;18.554;2023-06-26T06:37:57;9.8;;;5.5;;
23360;SDS011;11852;50.082;18.554;2023-06-26T06:39:02;11.0;;;5.2;;
23360;SDS011;11852;50.082;18.554;2023-06-26T06:40:09;8.7;;;5.5;;
23360;SDS011;11852;50.082;18.554;2023-06-26T06:41:13;9.6;;;4.9;;
23360;SDS011;11852;50.082;18.554;2023-06-26T06:42:17;8.0;;;4.9;;
23360;SDS011;11852;50.082;18.554;2023-06-26T06:43:22;9.8;;;5.4;;
23360;SDS011;11852;50.082;18.554;2023-06-26T06:44:28;8.2;;;4.7;;